Time;durP1;ratioP1;P1;durP2;ratioP2;P2;SDS_P1;SDS_P2;PMS_P1;PMS_P2;Temp;Humidity;BMP_temperature;BMP_pressure;BME280_temperature;BME280_humidity;BME280_pressure;Samples;Min_cycle;Max_cycle;Signal;HPM_P1;HPM_P2
2022/06/23 00:01:41;;;;;;;6.07;4.13;;;23.10;58.20;;;;;;5056799;28;20203;-93
2022/06/23 00:04:13;;;;;;;13.73;5.57;;;23.10;58.10;;;;;;5058742;28;20223;-95
2022/06/23 00:06:45;;;;;;;7.33;4.27;;;23.10;58.10;;;;;;5061180;28;20196;-95
2022/06/23 00:09:35;;;;;;;10.23;4.90;;;23.00;58.00;;;;;;5059309;28;20291;-95
2022/06/23 00:12:21;;;;;;;7.70;4.30;;;23.00;58.30;;;;;;5052108;28;20287;-92
2022/06/23 00:14:54;;;;;;;9.30;4.93;;;23.10;58.10;;;;;;5055214;28;20211;-93
2022/06/23 00:17:26;;;;;;;8.43;5.20;;;23.10;58.20;;;;;;5059828;28;20196;-95
2022/06/23 00:19:57;;;;;;;8.23;4.43;;;23.10;58.30;;;;;;5059023;28;20248;-94
2022/06/23 00:22:28;;;;;;;14.30;5.60;;;23.10;58.10;;;;;;5058071;28;20607;-94
2022/06/23 00:25:01;;;;;;;15.07;7.13;;;23.00;58.20;;;;;;5057019;28;20205;-95
2022/06/23 00:27:31;;;;;;;7.27;4.70;;;23.00;58.30;;;;;;5058824;28;20740;-95
2022/06/23 00:30:06;;;;;;;9.20;5.03;;;23.00;58.20;;;;;;5059014;28;20572;-95
2022/06/23 00:32:35;;;;;;;9.50;4.90;;;23.00;58.40;;;;;;5062091;28;20203;-93
2022/06/23 00:35:05;;;;;;;11.77;6.00;;;23.00;58.30;;;;;;5064509;28;20656;-95
2022/06/23 00:37:35;;;;;;;12.43;5.93;;;23.00;58.60;;;;;;5061837;28;20239;-94
2022/06/23 00:40:07;;;;;;;10.53;6.07;;;23.00;58.50;;;;;;5060574;28;20225;-95
2022/06/23 00:42:42;;;;;;;8.47;4.63;;;23.00;58.90;;;;;;5060358;28;20603;-95
2022/06/23 00:45:25;;;;;;;9.30;5.73;;;23.00;59.00;;;;;;5060221;28;20621;-95
2022/06/23 00:48:00;;;;;;;8.93;4.80;;;23.00;59.30;;;;;;5059152;28;20264;-95
2022/06/23 00:50:33;;;;;;;9.50;4.97;;;23.00;58.90;;;;;;5059968;28;20721;-94
2022/06/23 00:53:06;;;;;;;12.03;5.07;;;23.00;59.10;;;;;;5042627;28;20197;-95
2022/06/23 00:55:44;;;;;;;10.47;5.53;;;23.00;59.30;;;;;;5039280;28;20209;-95
2022/06/23 00:58:27;;;;;;;10.20;5.27;;;23.00;59.60;;;;;;5058745;28;20201;-96
2022/06/23 01:01:05;;;;;;;15.53;7.07;;;23.00;59.80;;;;;;5067622;28;20211;-95
2022/06/23 01:03:41;;;;;;;9.83;4.80;;;23.00;59.80;;;;;;5060135;28;20212;-95
2022/06/23 01:06:36;;;;;;;7.30;5.03;;;23.00;59.90;;;;;;5059734;28;20208;-94
2022/06/23 01:09:14;;;;;;;9.53;6.30;;;23.00;60.30;;;;;;5062324;28;20232;-95
2022/06/23 01:11:51;;;;;;;10.80;6.60;;;23.00;59.80;;;;;;5058865;28;20678;-94
2022/06/23 01:14:28;;;;;;;8.77;6.20;;;23.00;60.20;;;;;;5062460;28;20210;-94
2022/06/23 01:17:09;;;;;;;13.13;6.20;;;23.00;60.30;;;;;;5062044;28;20258;-96
2022/06/23 01:20:13;;;;;;;11.63;6.53;;;23.00;60.60;;;;;;5060815;28;20550;-94
2022/06/23 01:23:11;;;;;;;9.77;6.27;;;23.00;60.80;;;;;;5060021;28;20200;-95
2022/06/23 01:26:05;;;;;;;11.37;6.67;;;23.10;61.10;;;;;;5057470;28;20212;-94
2022/06/23 01:28:40;;;;;;;9.57;6.03;;;23.00;61.00;;;;;;5063826;28;20223;-94
2022/06/23 01:31:14;;;;;;;13.80;6.97;;;23.10;61.00;;;;;;5049866;28;20227;-94
2022/06/23 01:33:50;;;;;;;11.10;6.67;;;23.10;61.00;;;;;;5055527;28;20219;-94
2022/06/23 01:36:22;;;;;;;11.77;6.10;;;23.00;61.00;;;;;;5058986;28;20208;-93
2022/06/23 01:39:00;;;;;;;9.90;6.03;;;23.00;60.80;;;;;;5063039;28;21008;-95
2022/06/23 01:41:36;;;;;;;10.60;6.37;;;23.10;61.40;;;;;;5060578;28;20206;-93
2022/06/23 01:44:17;;;;;;;8.67;5.97;;;23.10;61.40;;;;;;5061268;28;20204;-95
2022/06/23 01:46:53;;;;;;;13.13;7.57;;;23.10;61.60;;;;;;5047145;28;20228;-95
2022/06/23 01:49:26;;;;;;;10.40;6.63;;;23.00;61.30;;;;;;5058047;28;20661;-95
2022/06/23 01:51:56;;;;;;;15.07;7.33;;;23.10;61.40;;;;;;5060185;28;20225;-95
2022/06/23 01:54:27;;;;;;;10.57;7.13;;;23.10;61.40;;;;;;5061870;28;20613;-94
2022/06/23 01:57:01;;;;;;;7.03;5.50;;;23.10;61.70;;;;;;5056193;28;20204;-94
2022/06/23 01:59:48;;;;;;;11.80;7.13;;;23.10;62.30;;;;;;5055872;28;20212;-95
2022/06/23 02:02:36;;;;;;;10.87;7.33;;;23.10;63.20;;;;;;5043317;28;20216;-95
2022/06/23 02:05:14;;;;;;;7.90;5.53;;;23.10;62.70;;;;;;5039698;28;20216;-94
2022/06/23 02:07:49;;;;;;;11.10;6.50;;;23.10;62.80;;;;;;5056206;28;20219;-94
2022/06/23 02:10:23;;;;;;;13.90;7.33;;;23.10;62.50;;;;;;5058636;28;20206;-94
2022/06/23 02:12:54;;;;;;;13.10;6.80;;;23.10;62.80;;;;;;5058714;28;20203;-93
2022/06/23 02:15:31;;;;;;;6.97;5.50;;;23.10;62.70;;;;;;5056067;28;20201;-95
2022/06/23 02:18:03;;;;;;;15.93;7.40;;;23.10;62.80;;;;;;5053670;28;20197;-94
2022/06/23 02:20:43;;;;;;;12.20;6.70;;;23.10;62.70;;;;;;5058626;28;20208;-95
2022/06/23 02:23:24;;;;;;;14.40;7.03;;;23.10;63.30;;;;;;5059830;28;20230;-94
2022/06/23 02:25:57;;;;;;;13.30;6.97;;;23.10;63.20;;;;;;5057412;28;20219;-95
2022/06/23 02:28:35;;;;;;;9.13;6.87;;;23.10;63.60;;;;;;5060342;28;20667;-95
2022/06/23 02:31:17;;;;;;;12.13;7.67;;;23.10;63.10;;;;;;5060878;28;20745;-96
2022/06/23 02:33:53;;;;;;;12.47;6.87;;;23.10;63.30;;;;;;5060469;28;20219;-95
2022/06/23 02:36:33;;;;;;;11.83;7.07;;;23.10;63.30;;;;;;5057303;28;20215;-94
2022/06/23 02:39:04;;;;;;;13.33;6.80;;;23.10;63.30;;;;;;5031255;28;20955;-96
2022/06/23 02:41:39;;;;;;;12.80;7.17;;;23.10;63.20;;;;;;5046717;28;20262;-94
2022/06/23 02:44:40;;;;;;;10.53;6.67;;;23.10;63.20;;;;;;5057757;28;20202;-93
2022/06/23 02:47:33;;;;;;;8.93;6.37;;;23.10;63.30;;;;;;5054263;28;20212;-93
2022/06/23 02:50:27;;;;;;;9.13;6.43;;;23.10;63.30;;;;;;5057085;28;20208;-96
2022/06/23 02:53:19;;;;;;;13.63;7.07;;;23.10;63.60;;;;;;5055555;28;20228;-95
2022/06/23 02:56:19;;;;;;;11.80;6.80;;;23.00;63.40;;;;;;5056955;28;20520;-95
2022/06/23 02:58:57;;;;;;;12.00;6.77;;;23.00;63.50;;;;;;5051322;28;20215;-94
2022/06/23 03:01:31;;;;;;;10.57;6.77;;;23.00;63.20;;;;;;5054574;28;20196;-92
2022/06/23 03:04:10;;;;;;;12.10;7.40;;;23.00;63.20;;;;;;5042762;28;20200;-92
2022/06/23 03:06:46;;;;;;;9.27;6.80;;;23.00;63.50;;;;;;5057178;28;20638;-94
2022/06/23 03:09:22;;;;;;;9.07;6.87;;;23.00;63.40;;;;;;5056409;28;20220;-95
2022/06/23 03:11:54;;;;;;;9.80;6.50;;;23.00;63.50;;;;;;5056851;28;20253;-94
2022/06/23 03:14:33;;;;;;;13.10;7.30;;;23.00;63.40;;;;;;5055845;28;20558;-93
2022/06/23 03:17:16;;;;;;;9.80;6.67;;;23.00;63.50;;;;;;5057352;28;20227;-94
2022/06/23 03:20:10;;;;;;;16.97;6.90;;;22.90;63.60;;;;;;5056140;28;20626;-93
2022/06/23 03:22:46;;;;;;;11.63;6.70;;;22.90;63.80;;;;;;5058289;28;20235;-92
2022/06/23 03:25:28;;;;;;;12.53;7.00;;;22.90;63.50;;;;;;5058680;28;20207;-93
2022/06/23 03:28:02;;;;;;;10.20;6.37;;;22.90;63.90;;;;;;5073490;28;20191;-91
2022/06/23 03:30:34;;;;;;;16.10;8.30;;;22.90;63.30;;;;;;5068665;28;20207;-94
2022/06/23 03:33:11;;;;;;;14.23;6.73;;;22.90;63.10;;;;;;5059624;28;20243;-92
2022/06/23 03:35:44;;;;;;;11.00;7.03;;;22.90;63.70;;;;;;5067888;28;20184;-92
2022/06/23 03:38:20;;;;;;;13.93;7.87;;;22.90;63.70;;;;;;5069243;28;20204;-91
2022/06/23 03:43:43;;;;;;;13.57;7.30;;;22.80;63.40;;;;;;5054089;28;20238;-92
2022/06/23 03:46:20;;;;;;;16.27;8.70;;;22.90;63.60;;;;;;5054437;28;20291;-92
2022/06/23 03:48:51;;;;;;;15.57;8.20;;;22.80;63.90;;;;;;5067456;28;20242;-93
2022/06/23 03:51:25;;;;;;;11.17;6.97;;;22.80;63.80;;;;;;5067232;28;20231;-92
2022/06/23 03:54:00;;;;;;;14.87;7.80;;;22.80;63.90;;;;;;5062810;28;20204;-92
2022/06/23 03:56:30;;;;;;;14.33;8.00;;;22.80;63.20;;;;;;5047370;28;20729;-92
2022/06/23 03:59:02;;;;;;;12.00;6.97;;;22.80;63.00;;;;;;5048458;28;20211;-92
2022/06/23 04:01:38;;;;;;;14.80;8.27;;;22.80;63.40;;;;;;5047349;28;20218;-92
2022/06/23 04:04:15;;;;;;;14.10;8.40;;;22.80;63.60;;;;;;5051963;28;20220;-92
2022/06/23 04:06:46;;;;;;;15.57;7.70;;;22.80;63.80;;;;;;5054276;28;20207;-91
2022/06/23 04:09:18;;;;;;;14.33;8.03;;;22.80;64.20;;;;;;5054498;28;20309;-93
2022/06/23 04:12:11;;;;;;;11.47;7.20;;;22.80;64.10;;;;;;5052157;28;20232;-91
2022/06/23 04:14:49;;;;;;;13.50;7.13;;;22.80;64.70;;;;;;5051303;28;20204;-92
2022/06/23 04:17:28;;;;;;;10.60;6.90;;;22.80;64.50;;;;;;5050410;28;20266;-93
2022/06/23 04:19:59;;;;;;;13.57;7.67;;;22.80;64.80;;;;;;5038502;28;20654;-92
2022/06/23 04:22:42;;;;;;;16.57;8.40;;;22.70;64.40;;;;;;5049881;28;20223;-93
2022/06/23 04:25:14;;;;;;;13.13;8.53;;;22.70;64.90;;;;;;5050698;28;20229;-92
2022/06/23 04:27:50;;;;;;;13.47;7.57;;;22.70;64.40;;;;;;5047499;28;20196;-92
2022/06/23 04:30:30;;;;;;;14.73;7.87;;;22.70;64.90;;;;;;5052687;28;20226;-92
2022/06/23 04:33:03;;;;;;;16.50;7.70;;;22.70;65.20;;;;;;5045982;28;20256;-93
2022/06/23 04:35:43;;;;;;;15.83;7.80;;;22.70;65.10;;;;;;5035268;28;20296;-93
2022/06/23 04:38:22;;;;;;;16.47;7.67;;;22.70;65.60;;;;;;5053190;28;20196;-93
2022/06/23 04:40:55;;;;;;;14.63;7.43;;;22.70;65.70;;;;;;5051753;28;20193;-92
2022/06/23 04:43:32;;;;;;;14.50;8.30;;;22.60;65.30;;;;;;5054090;28;20212;-91
2022/06/23 04:46:02;;;;;;;20.00;8.93;;;22.60;65.70;;;;;;5048296;28;20208;-93
2022/06/23 04:48:34;;;;;;;14.63;7.47;;;22.60;65.50;;;;;;5035664;28;20270;-91
2022/06/23 04:51:05;;;;;;;9.57;6.90;;;22.60;65.70;;;;;;5033957;28;20254;-91
2022/06/23 04:53:47;;;;;;;10.77;6.87;;;22.60;65.70;;;;;;5035108;28;20217;-92
2022/06/23 04:56:29;;;;;;;11.73;7.33;;;22.60;66.20;;;;;;5050379;28;20200;-91
2022/06/23 04:59:02;;;;;;;12.40;7.20;;;22.60;66.00;;;;;;5056697;28;20222;-92
2022/06/23 05:01:39;;;;;;;20.67;9.90;;;22.60;65.70;;;;;;5049695;28;20542;-91
2022/06/23 05:04:11;;;;;;;13.30;8.03;;;22.60;66.00;;;;;;5032598;28;20209;-92
2022/06/23 05:06:42;;;;;;;13.67;7.67;;;22.60;65.70;;;;;;5050199;28;20208;-91
2022/06/23 05:09:22;;;;;;;13.27;7.80;;;22.60;66.00;;;;;;5051861;28;20418;-92
2022/06/23 05:11:54;;;;;;;15.00;8.17;;;22.70;66.40;;;;;;5050289;28;20231;-91
2022/06/23 05:14:27;;;;;;;11.83;7.53;;;22.70;66.10;;;;;;5037421;28;20231;-92
2022/06/23 05:17:01;;;;;;;11.93;7.83;;;22.70;66.00;;;;;;5039505;28;20657;-93
2022/06/23 05:19:33;;;;;;;13.47;8.33;;;22.70;65.80;;;;;;5054644;28;20207;-94
2022/06/23 05:22:08;;;;;;;14.60;7.87;;;22.70;65.80;;;;;;5053876;28;20208;-92
2022/06/23 05:24:40;;;;;;;12.13;7.53;;;22.70;65.50;;;;;;5052668;28;20609;-92
2022/06/23 05:27:18;;;;;;;15.07;7.77;;;22.70;66.20;;;;;;5053928;28;20189;-91
2022/06/23 05:29:49;;;;;;;10.50;6.67;;;22.70;66.20;;;;;;5051761;28;20209;-93
2022/06/23 05:32:21;;;;;;;12.90;7.80;;;22.70;65.30;;;;;;5054237;28;20321;-92
2022/06/23 05:34:56;;;;;;;16.13;8.40;;;22.70;65.10;;;;;;5048134;28;20206;-93
2022/06/23 05:37:29;;;;;;;17.67;8.20;;;22.70;65.10;;;;;;5053503;28;20196;-92
2022/06/23 05:40:21;;;;;;;14.10;7.53;;;22.70;64.90;;;;;;5053424;28;20204;-92
2022/06/23 05:42:54;;;;;;;9.70;6.53;;;22.70;64.70;;;;;;5055008;28;20275;-92
2022/06/23 05:45:24;;;;;;;10.70;6.97;;;22.70;64.30;;;;;;5053360;28;20200;-91
2022/06/23 05:47:55;;;;;;;11.03;6.70;;;22.80;64.20;;;;;;5053302;28;20214;-93
2022/06/23 05:50:26;;;;;;;14.97;8.23;;;22.80;64.10;;;;;;5050467;28;20216;-91
2022/06/23 05:53:01;;;;;;;12.30;7.10;;;22.70;63.60;;;;;;5050482;28;20694;-91
2022/06/23 05:55:39;;;;;;;15.70;8.20;;;22.80;63.60;;;;;;5051698;28;20310;-91
2022/06/23 05:58:15;;;;;;;13.37;7.03;;;22.80;63.50;;;;;;5051356;28;20258;-90
2022/06/23 06:00:49;;;;;;;13.73;7.83;;;22.80;63.00;;;;;;5051045;28;20212;-90
2022/06/23 06:03:27;;;;;;;13.20;7.50;;;22.90;63.90;;;;;;5051701;28;20653;-92
2022/06/23 06:05:57;;;;;;;17.03;8.47;;;22.90;63.10;;;;;;5043435;28;20203;-92
2022/06/23 06:08:30;;;;;;;20.90;9.37;;;22.90;63.10;;;;;;5021507;28;20294;-93
2022/06/23 06:11:02;;;;;;;14.33;7.70;;;22.90;62.90;;;;;;5037160;28;20204;-91
2022/06/23 06:13:36;;;;;;;12.47;7.90;;;23.00;62.70;;;;;;5047726;28;20224;-90
2022/06/23 06:16:05;;;;;;;20.20;9.60;;;23.00;62.50;;;;;;5050780;28;20286;-91
2022/06/23 06:18:35;;;;;;;14.93;7.40;;;23.00;62.60;;;;;;5050060;28;20275;-91
2022/06/23 06:21:06;;;;;;;13.03;7.20;;;23.00;62.60;;;;;;5048991;28;20663;-93
2022/06/23 06:23:46;;;;;;;11.17;5.87;;;23.10;62.40;;;;;;5056093;28;20200;-96
2022/06/23 06:26:19;;;;;;;13.93;6.83;;;23.10;62.20;;;;;;5056798;28;20228;-90
2022/06/23 06:28:46;;;;;;;14.83;7.93;;;23.10;61.80;;;;;;5051117;28;20215;-90
2022/06/23 06:31:18;;;;;;;15.83;8.50;;;23.20;61.80;;;;;;5050277;28;20225;-89
2022/06/23 06:33:54;;;;;;;14.60;7.40;;;23.20;61.60;;;;;;5050814;28;20238;-90
2022/06/23 06:36:31;;;;;;;12.10;7.10;;;23.20;61.50;;;;;;5049732;28;20199;-90
2022/06/23 06:39:06;;;;;;;14.53;6.70;;;23.30;61.60;;;;;;5049812;28;20202;-92
2022/06/23 06:41:37;;;;;;;12.17;6.83;;;23.30;61.50;;;;;;5050758;28;20269;-91
2022/06/23 06:44:05;;;;;;;12.07;6.70;;;23.40;61.50;;;;;;5050653;28;20292;-92
2022/06/23 06:46:35;;;;;;;13.40;6.73;;;23.40;61.60;;;;;;5050926;28;20608;-91
2022/06/23 06:49:02;;;;;;;13.90;7.17;;;23.40;61.60;;;;;;5050018;28;20195;-90
2022/06/23 06:51:30;;;;;;;17.03;8.53;;;23.50;61.50;;;;;;5048559;28;20202;-90
2022/06/23 06:54:02;;;;;;;11.63;6.77;;;23.50;61.40;;;;;;5049456;28;20338;-93
2022/06/23 06:56:40;;;;;;;13.43;7.93;;;23.50;61.80;;;;;;5050346;28;20615;-92
2022/06/23 06:59:14;;;;;;;12.47;6.93;;;23.60;61.50;;;;;;5047904;28;20196;-92
2022/06/23 07:01:44;;;;;;;12.73;6.73;;;23.60;61.60;;;;;;5030544;28;20238;-91
2022/06/23 07:04:17;;;;;;;24.70;10.20;;;23.70;61.80;;;;;;5030498;28;20691;-93
2022/06/23 07:06:48;;;;;;;12.47;7.43;;;23.80;61.90;;;;;;5048790;28;20284;-91
2022/06/23 07:09:29;;;;;;;10.40;6.17;;;23.80;62.10;;;;;;5049507;28;20225;-90
2022/06/23 07:12:05;;;;;;;14.07;6.33;;;23.90;62.10;;;;;;5050287;28;20640;-92
2022/06/23 07:14:40;;;;;;;9.30;5.43;;;23.90;62.10;;;;;;5050974;28;20248;-92
2022/06/23 07:17:16;;;;;;;11.13;5.80;;;24.00;62.40;;;;;;5050465;28;20574;-89
2022/06/23 07:19:51;;;;;;;7.73;5.57;;;24.10;62.50;;;;;;5049848;28;20275;-93
2022/06/23 07:22:23;;;;;;;15.07;7.33;;;24.10;62.50;;;;;;5049657;28;20210;-91
2022/06/23 07:24:54;;;;;;;13.17;7.10;;;24.20;62.60;;;;;;5049037;28;20214;-89
2022/06/23 07:27:28;;;;;;;13.17;6.57;;;24.30;62.80;;;;;;5049825;28;20238;-91
2022/06/23 07:30:01;;;;;;;15.57;7.80;;;24.30;63.10;;;;;;5049852;28;20691;-92
2022/06/23 07:32:39;;;;;;;12.30;6.00;;;24.40;63.40;;;;;;5050557;28;20223;-92
2022/06/23 07:35:32;;;;;;;12.63;6.50;;;24.50;63.70;;;;;;5049532;28;20211;-92
2022/06/23 07:38:06;;;;;;;9.57;5.77;;;24.50;63.70;;;;;;5050156;28;20667;-90
2022/06/23 07:40:42;;;;;;;9.93;6.07;;;24.60;63.60;;;;;;5052213;28;20885;-92
2022/06/23 07:43:16;;;;;;;12.07;6.73;;;24.70;63.90;;;;;;5052182;28;20206;-93
2022/06/23 07:45:52;;;;;;;12.43;6.63;;;24.80;64.10;;;;;;5050687;28;20226;-91
2022/06/23 07:48:20;;;;;;;10.73;6.50;;;24.80;64.20;;;;;;5049161;28;20245;-91
2022/06/23 07:50:47;;;;;;;14.60;7.03;;;25.00;64.30;;;;;;5048147;28;20539;-92
2022/06/23 07:53:19;;;;;;;9.93;6.60;;;25.00;64.30;;;;;;5044814;28;20306;-91
2022/06/23 07:55:48;;;;;;;13.23;7.13;;;25.10;64.40;;;;;;5038029;28;20248;-93
2022/06/23 07:58:23;;;;;;;15.57;7.60;;;25.20;64.40;;;;;;5039256;28;20591;-94
2022/06/23 08:00:56;;;;;;;12.73;7.50;;;25.30;64.50;;;;;;5043284;28;20200;-92
2022/06/23 08:03:33;;;;;;;12.60;6.00;;;25.40;64.10;;;;;;5046369;28;20278;-92
2022/06/23 08:06:04;;;;;;;14.20;7.33;;;25.40;64.10;;;;;;5042291;28;20223;-93
2022/06/23 08:08:35;;;;;;;13.70;6.67;;;25.50;64.00;;;;;;5039657;28;20254;-91
2022/06/23 08:13:55;;;;;;;13.10;6.80;;;25.60;64.10;;;;;;5037004;28;20240;-92
2022/06/23 08:19:16;;;;;;;13.50;7.27;;;25.80;63.90;;;;;;5041495;28;20203;-92
2022/06/23 08:21:47;;;;;;;9.63;5.33;;;25.90;63.60;;;;;;5041630;28;20677;-93
2022/06/23 08:24:18;;;;;;;11.53;6.27;;;26.00;63.60;;;;;;5041695;28;20667;-92
2022/06/23 08:26:48;;;;;;;12.70;6.37;;;26.00;63.70;;;;;;5042276;28;20614;-93
2022/06/23 08:29:20;;;;;;;11.87;7.23;;;26.10;63.80;;;;;;5040517;28;20208;-91
2022/06/23 08:31:48;;;;;;;13.77;7.37;;;26.20;63.70;;;;;;5039251;28;20189;-90
2022/06/23 08:34:15;;;;;;;18.10;7.90;;;26.30;63.90;;;;;;5051172;28;20589;-92
2022/06/23 08:36:46;;;;;;;7.83;5.40;;;26.40;63.90;;;;;;5042615;28;20900;-93
2022/06/23 08:39:19;;;;;;;12.30;6.57;;;26.50;64.00;;;;;;5042021;28;20662;-96
2022/06/23 08:41:52;;;;;;;13.30;6.80;;;26.60;64.20;;;;;;5042233;28;20196;-93
2022/06/23 08:44:33;;;;;;;19.57;8.37;;;26.80;63.70;;;;;;5040060;28;20669;-96
2022/06/23 08:47:07;;;;;;;9.60;6.50;;;27.00;63.60;;;;;;5043824;28;20219;-96
2022/06/23 08:49:41;;;;;;;13.13;7.27;;;27.20;63.20;;;;;;5047493;28;20219;-91
2022/06/23 08:52:17;;;;;;;14.57;7.60;;;27.40;63.00;;;;;;5042993;28;20199;-91
2022/06/23 08:54:50;;;;;;;10.97;5.83;;;27.60;62.90;;;;;;5034831;28;20639;-92
2022/06/23 08:57:24;;;;;;;13.53;7.17;;;27.80;62.80;;;;;;5052794;28;20643;-94
2022/06/23 08:59:59;;;;;;;8.17;6.23;;;28.00;62.10;;;;;;5052420;28;20202;-94
2022/06/23 09:02:33;;;;;;;13.50;7.60;;;28.20;62.00;;;;;;5051372;28;20223;-90
2022/06/23 09:05:08;;;;;;;12.37;6.73;;;28.40;61.50;;;;;;5052161;28;20200;-94
2022/06/23 09:07:45;;;;;;;13.70;7.20;;;28.60;60.90;;;;;;5052063;28;20224;-88
2022/06/23 09:10:26;;;;;;;13.77;7.03;;;28.80;60.30;;;;;;5052369;28;20204;-90
2022/06/23 09:13:03;;;;;;;12.73;7.43;;;29.00;59.80;;;;;;5051349;28;20285;-93
2022/06/23 09:15:53;;;;;;;9.70;6.67;;;29.20;59.40;;;;;;5051497;28;20200;-91
2022/06/23 09:18:56;;;;;;;9.70;6.67;;;29.40;59.40;;;;;;5013386;28;20675;-91
2022/06/23 09:21:46;;;;;;;9.70;6.17;;;29.60;58.70;;;;;;5031408;28;20659;-91
2022/06/23 09:24:30;;;;;;;9.20;6.30;;;29.80;58.40;;;;;;5033170;28;21071;-93
2022/06/23 09:27:03;;;;;;;10.67;7.10;;;29.90;57.80;;;;;;5031697;28;20220;-96
2022/06/23 09:29:46;;;;;;;9.00;7.07;;;29.90;57.80;;;;;;5046825;28;20192;-94
2022/06/23 09:32:23;;;;;;;10.93;7.70;;;30.10;57.70;;;;;;5050378;28;20280;-92
2022/06/23 09:35:04;;;;;;;10.80;6.63;;;30.10;57.40;;;;;;5052629;28;20235;-92
2022/06/23 09:37:53;;;;;;;10.33;6.77;;;30.30;57.40;;;;;;5042863;28;20973;-93
2022/06/23 09:40:34;;;;;;;13.57;8.70;;;30.30;57.50;;;;;;5033509;28;20250;-92
2022/06/23 09:43:37;;;;;;;13.20;7.30;;;30.40;57.20;;;;;;5013256;28;20203;-94
2022/06/23 09:46:22;;;;;;;11.03;7.17;;;30.50;57.10;;;;;;5030874;28;20604;-94
2022/06/23 09:49:14;;;;;;;11.57;7.83;;;30.70;57.00;;;;;;5049295;28;20706;-92
2022/06/23 09:52:06;;;;;;;9.00;6.33;;;30.70;56.80;;;;;;5052517;28;20856;-91
2022/06/23 09:55:11;;;;;;;12.33;7.30;;;30.90;56.80;;;;;;5038463;28;20235;-90
2022/06/23 09:57:57;;;;;;;11.80;6.93;;;30.90;56.20;;;;;;5027328;28;20239;-90
2022/06/23 10:00:36;;;;;;;12.13;6.77;;;30.90;55.60;;;;;;5051765;28;20241;-90
2022/06/23 10:03:16;;;;;;;8.20;5.80;;;30.90;55.80;;;;;;5051163;28;20211;-91
2022/06/23 10:06:12;;;;;;;9.67;6.30;;;30.90;55.60;;;;;;5050937;28;20287;-91
2022/06/23 10:08:51;;;;;;;8.27;5.70;;;30.90;55.80;;;;;;5051451;28;20630;-90
2022/06/23 10:12:36;;;;;;;10.07;5.77;;;30.80;55.80;;;;;;5059294;28;20196;-95
2022/06/23 10:15:17;;;;;;;10.20;5.63;;;30.80;56.50;;;;;;4970022;28;20742;-90
2022/06/23 10:18:12;;;;;;;5.40;4.50;;;30.90;55.90;;;;;;4983997;28;20217;-92
2022/06/23 10:20:56;;;;;;;9.20;5.77;;;30.80;55.50;;;;;;5037121;28;20277;-90
2022/06/23 10:24:00;;;;;;;6.43;4.90;;;30.90;56.10;;;;;;5050540;28;20820;-90
2022/06/23 10:26:55;;;;;;;8.17;5.60;;;30.90;56.40;;;;;;5049455;28;20215;-91
2022/06/23 10:29:53;;;;;;;12.60;8.10;;;31.00;56.20;;;;;;5050332;28;20319;-91
2022/06/23 10:32:42;;;;;;;11.00;7.33;;;31.00;56.20;;;;;;5043345;28;20204;-92
2022/06/23 10:35:23;;;;;;;9.07;6.87;;;31.00;56.00;;;;;;5049171;28;20609;-93
2022/06/23 10:38:10;;;;;;;11.07;6.83;;;31.00;56.20;;;;;;5048919;28;20218;-89
2022/06/23 10:41:04;;;;;;;10.07;5.73;;;31.00;55.70;;;;;;5050083;28;20212;-94
2022/06/23 10:44:06;;;;;;;9.50;6.20;;;31.00;55.90;;;;;;5049050;28;20254;-92
2022/06/23 10:46:40;;;;;;;9.70;6.20;;;30.90;55.50;;;;;;5050761;28;20222;-92
2022/06/23 10:49:25;;;;;;;8.37;5.53;;;30.90;55.40;;;;;;5047019;28;20240;-91
2022/06/23 10:52:14;;;;;;;8.67;6.20;;;30.90;55.80;;;;;;5049035;28;20216;-92
2022/06/23 10:55:08;;;;;;;10.37;6.57;;;30.80;55.80;;;;;;5037881;28;20278;-91
2022/06/23 10:58:08;;;;;;;14.07;6.13;;;30.70;55.70;;;;;;5031304;28;20204;-91
2022/06/23 11:00:42;;;;;;;7.43;5.10;;;30.70;55.50;;;;;;5031213;28;20211;-90
2022/06/23 11:03:46;;;;;;;8.03;5.53;;;30.60;55.50;;;;;;5050858;28;20242;-91
2022/06/23 11:06:34;;;;;;;9.17;5.33;;;30.50;55.90;;;;;;5053671;28;20220;-91
2022/06/23 11:09:31;;;;;;;4.70;3.20;;;30.60;55.10;;;;;;5044580;28;20265;-92
2022/06/23 11:12:10;;;;;;;9.10;5.00;;;30.60;54.80;;;;;;5048837;28;20211;-89
2022/06/23 11:14:51;;;;;;;8.70;4.97;;;30.60;54.60;;;;;;5048215;28;20273;-91
2022/06/23 11:17:29;;;;;;;7.07;4.30;;;30.60;55.00;;;;;;5047749;28;20232;-91
2022/06/23 11:20:09;;;;;;;8.90;3.83;;;30.70;54.70;;;;;;5048953;28;20200;-89
2022/06/23 11:22:43;;;;;;;8.70;4.13;;;30.80;54.30;;;;;;5050058;28;20200;-91
2022/06/23 11:25:43;;;;;;;6.47;4.03;;;30.80;54.40;;;;;;5046060;28;20258;-92
2022/06/23 11:28:24;;;;;;;9.67;5.23;;;30.90;54.20;;;;;;5060168;28;20203;-91
2022/06/23 11:31:08;;;;;;;8.47;4.87;;;30.90;53.90;;;;;;5056151;28;20215;-90
2022/06/23 11:33:52;;;;;;;6.97;3.87;;;31.00;53.40;;;;;;5053533;28;20303;-94
2022/06/23 11:36:38;;;;;;;9.00;4.50;;;31.00;53.20;;;;;;5065145;28;20208;-93
2022/06/23 11:39:39;;;;;;;4.43;3.07;;;31.10;53.40;;;;;;5050895;28;20309;-93
2022/06/23 11:42:26;;;;;;;5.27;3.10;;;31.10;53.20;;;;;;5050128;28;20205;-93
2022/06/23 11:45:09;;;;;;;8.43;3.43;;;31.10;52.60;;;;;;5050213;28;20228;-90
2022/06/23 11:47:49;;;;;;;7.53;3.73;;;31.10;52.60;;;;;;5049857;28;20228;-90
2022/06/23 11:50:22;;;;;;;8.70;3.97;;;31.20;52.80;;;;;;5048615;28;20211;-92
2022/06/23 11:53:18;;;;;;;7.43;3.97;;;31.30;53.10;;;;;;5049357;28;20279;-92
2022/06/23 11:55:49;;;;;;;4.55;3.15;;;31.30;52.70;;;;;;5049308;28;20208;-89
2022/06/23 11:58:40;;;;;;;6.38;3.88;;;31.40;52.50;;;;;;5049357;28;20200;-93
2022/06/23 12:01:15;;;;;;;8.53;4.73;;;31.60;52.00;;;;;;5037720;28;20207;-92
2022/06/23 12:04:19;;;;;;;8.10;4.03;;;31.60;52.20;;;;;;5046892;28;20209;-94
2022/06/23 12:07:03;;;;;;;6.25;3.45;;;31.70;52.20;;;;;;5043874;28;20203;-92
2022/06/23 12:09:38;;;;;;;8.67;4.40;;;31.70;52.00;;;;;;5047326;28;20595;-92
2022/06/23 12:12:06;;;;;;;8.03;4.17;;;31.70;51.60;;;;;;5040841;28;20291;-92
2022/06/23 12:14:35;;;;;;;6.87;4.13;;;31.80;51.70;;;;;;5046991;28;20745;-91
2022/06/23 12:17:46;;;;;;;4.93;3.03;;;31.80;51.90;;;;;;5057236;28;20542;-96
2022/06/23 12:20:20;;;;;;;6.10;3.33;;;31.70;51.10;;;;;;5050348;28;20197;-91
2022/06/23 12:22:55;;;;;;;4.43;3.03;;;31.80;51.10;;;;;;5049323;28;20200;-92
2022/06/23 12:25:29;;;;;;;7.07;4.17;;;31.70;51.30;;;;;;5049178;28;20208;-92
2022/06/23 12:28:07;;;;;;;7.73;4.50;;;31.60;51.10;;;;;;5049470;28;20200;-95
2022/06/23 12:30:43;;;;;;;6.87;4.53;;;31.60;51.10;;;;;;5050652;28;20299;-95
2022/06/23 12:33:18;;;;;;;9.10;5.13;;;31.60;51.10;;;;;;5049103;28;20207;-93
2022/06/23 12:35:53;;;;;;;7.90;4.53;;;31.60;51.20;;;;;;5049896;28;20234;-94
2022/06/23 12:38:28;;;;;;;9.30;4.60;;;31.60;51.50;;;;;;5047859;28;20261;-92
2022/06/23 12:40:59;;;;;;;7.43;4.73;;;31.60;51.10;;;;;;5049378;28;20211;-92
2022/06/23 12:43:35;;;;;;;5.55;3.80;;;31.60;51.20;;;;;;5048086;28;20620;-93
2022/06/23 12:46:12;;;;;;;9.43;5.25;;;31.60;51.00;;;;;;5049697;28;20294;-92
2022/06/23 12:49:07;;;;;;;7.43;4.43;;;31.70;50.80;;;;;;5050422;28;20213;-92
2022/06/23 12:51:45;;;;;;;11.43;4.73;;;31.70;50.70;;;;;;5048477;28;20392;-92
2022/06/23 12:54:34;;;;;;;10.00;5.18;;;31.60;50.20;;;;;;5049014;28;20278;-94
2022/06/23 12:57:41;;;;;;;8.40;4.27;;;31.60;50.20;;;;;;5048601;28;20212;-94
2022/06/23 13:00:12;;;;;;;6.30;4.50;;;31.50;50.20;;;;;;5048553;28;20236;-92
2022/06/23 13:02:46;;;;;;;9.13;5.03;;;31.40;50.70;;;;;;5057609;28;20756;-93
2022/06/23 13:05:22;;;;;;;8.00;4.63;;;31.30;50.50;;;;;;5053133;28;20232;-94
2022/06/23 13:07:57;;;;;;;7.03;4.27;;;31.20;50.70;;;;;;5042607;28;20206;-92
2022/06/23 13:10:36;;;;;;;10.50;5.60;;;31.20;51.10;;;;;;5051669;28;20262;-92
2022/06/23 13:13:22;;;;;;;8.23;4.73;;;31.10;51.20;;;;;;5049703;28;20235;-92
2022/06/23 13:15:57;;;;;;;10.57;5.23;;;31.10;50.90;;;;;;5035696;28;20843;-92
2022/06/23 13:18:33;;;;;;;4.10;2.87;;;31.10;51.20;;;;;;5050368;28;20211;-96
2022/06/23 13:21:09;;;;;;;10.57;5.50;;;31.10;51.10;;;;;;5035301;28;20543;-93
2022/06/23 13:23:46;;;;;;;6.57;4.03;;;31.10;51.40;;;;;;5050358;28;20266;-93
2022/06/23 13:26:23;;;;;;;8.73;3.77;;;31.10;51.40;;;;;;5052753;28;20200;-91
2022/06/23 13:29:00;;;;;;;6.40;3.73;;;31.10;51.30;;;;;;5051028;28;20648;-93
2022/06/23 13:31:43;;;;;;;6.87;3.90;;;31.20;51.10;;;;;;5051664;28;20211;-94
2022/06/23 13:34:19;;;;;;;10.93;4.40;;;31.30;51.40;;;;;;5051646;28;20298;-91
2022/06/23 13:36:51;;;;;;;8.47;3.67;;;31.30;50.20;;;;;;5046189;28;20295;-91
2022/06/23 13:39:25;;;;;;;6.07;2.73;;;31.40;50.30;;;;;;5005341;28;20196;-92
2022/06/23 13:41:58;;;;;;;5.60;3.00;;;31.50;49.70;;;;;;5034742;28;20298;-92
2022/06/23 13:44:35;;;;;;;5.27;2.97;;;31.60;49.60;;;;;;5031675;28;20205;-91
2022/06/23 13:47:11;;;;;;;8.13;3.43;;;31.70;49.70;;;;;;5049732;28;20250;-91